createdAt,value
2023-11-25T00:00:54.776Z,35.35
2023-11-25T00:03:22.022Z,32.28
2023-11-25T00:05:50.367Z,37.95
2023-11-25T00:08:18.090Z,33.50
2023-11-25T00:10:45.089Z,34.38
2023-11-25T00:13:12.105Z,34.17
2023-11-25T00:15:40.213Z,37.60
2023-11-25T00:18:07.844Z,34.22
2023-11-25T00:20:37.380Z,34.10
2023-11-25T00:23:04.541Z,38.20
2023-11-25T00:25:31.453Z,33.88
2023-11-25T00:27:58.242Z,36.70
2023-11-25T00:30:25.249Z,34.40
2023-11-25T00:32:53.027Z,38.95
2023-11-25T00:35:38.625Z,37.85
2023-11-25T00:38:09.428Z,35.47
2023-11-25T00:40:37.207Z,33.60
2023-11-25T00:43:04.774Z,32.00
2023-11-25T00:45:31.623Z,35.55
2023-11-25T00:47:58.510Z,38.60
2023-11-25T00:50:26.229Z,38.60
2023-11-25T00:52:53.280Z,40.08
2023-11-25T00:55:20.033Z,37.75
2023-11-25T00:57:47.262Z,35.80
2023-11-25T01:00:17.804Z,34.90
2023-11-25T01:02:45.501Z,35.92
2023-11-25T01:05:12.618Z,33.72
2023-11-25T01:07:39.537Z,38.22
2023-11-25T01:10:06.953Z,36.70
2023-11-25T01:12:36.149Z,39.63
2023-11-25T01:15:04.850Z,33.90
2023-11-25T01:17:31.642Z,40.40
2023-11-25T01:19:59.427Z,37.53
2023-11-25T01:22:27.097Z,33.95
2023-11-25T01:24:53.970Z,33.95
2023-11-25T01:27:22.105Z,35.40
2023-11-25T01:29:48.789Z,36.53
2023-11-25T01:32:15.609Z,32.95
2023-11-25T01:34:42.450Z,40.40
2023-11-25T01:37:09.857Z,34.63
2023-11-25T01:39:36.567Z,35.67
2023-11-25T01:42:03.564Z,40.03
2023-11-25T01:44:30.255Z,35.40
2023-11-25T01:46:57.138Z,34.85
2023-11-25T01:49:24.054Z,38.67
2023-11-25T01:51:52.801Z,38.28
2023-11-25T01:54:21.447Z,38.25
2023-11-25T01:56:52.683Z,37.75
2023-11-25T01:59:21.260Z,39.60
2023-11-25T02:01:48.328Z,30.38
2023-11-25T02:04:15.440Z,36.47
2023-11-25T02:06:42.467Z,37.28
2023-11-25T02:09:09.772Z,39.05
2023-11-25T02:12:02.889Z,39.13
2023-11-25T02:14:29.857Z,35.55
2023-11-25T02:16:58.427Z,37.60
2023-11-25T02:19:25.731Z,33.90
2023-11-25T02:21:53.573Z,35.45
2023-11-25T02:24:20.786Z,38.85
2023-11-25T02:26:47.996Z,40.88
2023-11-25T02:29:14.908Z,43.20
2023-11-25T02:31:43.767Z,43.08
2023-11-25T02:34:11.117Z,38.00
2023-11-25T02:36:39.670Z,36.15
2023-11-25T02:39:06.690Z,40.35
2023-11-25T02:41:33.757Z,39.30
2023-11-25T02:44:01.217Z,38.10
2023-11-25T02:46:28.908Z,37.13
2023-11-25T02:48:55.741Z,40.17
2023-11-25T02:51:22.981Z,36.38
2023-11-25T02:53:50.587Z,36.35
2023-11-25T02:56:17.511Z,37.83
2023-11-25T02:58:44.586Z,35.63
2023-11-25T03:01:15.027Z,35.00
2023-11-25T03:03:48.706Z,37.60
2023-11-25T03:06:17.413Z,35.20
2023-11-25T03:08:44.745Z,43.53
2023-11-25T03:11:16.932Z,34.90
2023-11-25T03:13:43.796Z,35.60
2023-11-25T03:16:11.787Z,38.33
2023-11-25T03:18:38.841Z,39.45
2023-11-25T03:21:06.436Z,35.97
2023-11-25T03:23:33.222Z,38.35
2023-11-25T03:26:00.158Z,37.72
2023-11-25T03:28:27.727Z,38.30
2023-11-25T03:30:55.323Z,39.10
2023-11-25T03:33:22.185Z,37.58
2023-11-25T03:35:49.018Z,35.97
2023-11-25T03:38:16.843Z,38.38
2023-11-25T03:40:43.651Z,39.00
2023-11-25T03:43:10.457Z,41.53
2023-11-25T03:45:37.195Z,43.78
2023-11-25T03:48:06.807Z,39.42
2023-11-25T03:50:34.080Z,37.25
2023-11-25T03:53:02.279Z,41.80
2023-11-25T03:55:29.156Z,41.83
2023-11-25T03:57:55.942Z,41.97
2023-11-25T04:00:23.676Z,42.08
2023-11-25T04:02:50.545Z,41.95
2023-11-25T04:05:20.241Z,42.50
2023-11-25T04:07:47.352Z,40.78
2023-11-25T04:10:15.019Z,40.45
2023-11-25T04:12:49.679Z,38.72
2023-11-25T04:15:20.946Z,38.20
2023-11-25T04:17:48.426Z,40.05
2023-11-25T04:20:18.914Z,39.72
2023-11-25T04:22:47.911Z,37.53
2023-11-25T04:25:16.889Z,39.97
2023-11-25T04:27:45.777Z,36.13
2023-11-25T04:30:13.198Z,38.15
2023-11-25T04:32:44.346Z,38.17
2023-11-25T04:35:11.425Z,37.25
2023-11-25T04:37:38.597Z,39.90
2023-11-25T04:40:06.623Z,36.78
2023-11-25T04:42:34.001Z,38.45
2023-11-25T04:45:01.140Z,36.25
2023-11-25T04:47:28.120Z,37.90
2023-11-25T04:49:55.238Z,31.92
2023-11-25T04:52:22.103Z,33.80
2023-11-25T04:54:50.153Z,33.53
2023-11-25T04:57:17.777Z,36.83
2023-11-25T04:59:44.533Z,35.08
2023-11-25T05:02:11.421Z,31.73
2023-11-25T05:04:38.338Z,35.40
2023-11-25T05:07:05.796Z,28.92
2023-11-25T05:09:33.196Z,31.42
2023-11-25T05:12:00.861Z,27.38
2023-11-25T05:14:27.982Z,27.05
2023-11-25T05:16:57.193Z,31.00
2023-11-25T05:19:24.292Z,26.80
2023-11-25T05:21:50.970Z,26.67
2023-11-25T05:24:17.876Z,24.48
2023-11-25T05:26:44.809Z,25.42
2023-11-25T05:29:11.585Z,26.35
2023-11-25T05:31:38.502Z,26.33
2023-11-25T05:34:06.550Z,23.33
2023-11-25T05:36:36.051Z,25.88
2023-11-25T05:39:03.429Z,23.95
2023-11-25T05:41:30.287Z,26.77
2023-11-25T05:43:58.704Z,23.75
2023-11-25T05:46:26.183Z,24.90
2023-11-25T05:48:54.365Z,21.10
2023-11-25T05:51:21.736Z,23.77
2023-11-25T05:53:48.507Z,26.98
2023-11-25T05:56:15.509Z,27.73
2023-11-25T05:58:42.351Z,24.90
2023-11-25T06:01:09.225Z,23.55
2023-11-25T06:03:36.099Z,25.30
2023-11-25T06:06:07.449Z,25.75
2023-11-25T06:08:34.246Z,25.30
2023-11-25T06:11:00.975Z,24.38
2023-11-25T06:13:27.729Z,25.13
2023-11-25T06:15:54.400Z,25.42
2023-11-25T06:18:22.095Z,27.60
2023-11-25T06:20:49.042Z,25.13
2023-11-25T06:23:16.132Z,24.92
2023-11-25T06:25:44.148Z,26.92
2023-11-25T06:28:14.584Z,28.08
2023-11-25T06:30:41.321Z,25.73
2023-11-25T06:33:08.273Z,25.30
2023-11-25T06:35:37.248Z,29.27
2023-11-25T06:38:05.452Z,29.25
2023-11-25T06:40:34.600Z,25.58
2023-11-25T06:43:01.810Z,23.65
2023-11-25T06:45:48.441Z,24.15
2023-11-25T06:48:18.958Z,20.95
2023-11-25T06:51:04.929Z,24.98
2023-11-25T06:53:33.907Z,24.05
2023-11-25T06:56:01.114Z,22.05
2023-11-25T06:58:28.904Z,31.35
2023-11-25T07:00:58.934Z,20.92
2023-11-25T07:03:25.793Z,23.13
2023-11-25T07:05:52.677Z,21.80
2023-11-25T07:08:19.492Z,21.55
2023-11-25T07:10:54.902Z,20.00
2023-11-25T07:13:41.544Z,20.40
2023-11-25T07:16:09.235Z,21.08
2023-11-25T07:18:36.363Z,22.30
2023-11-25T07:21:03.543Z,23.75
2023-11-25T07:23:30.249Z,21.67
2023-11-25T07:25:57.179Z,21.00
2023-11-25T07:28:24.126Z,23.73
2023-11-25T07:30:51.072Z,23.20
2023-11-25T07:33:17.869Z,22.00
2023-11-25T07:35:44.667Z,21.92
2023-11-25T07:38:11.610Z,19.90
2023-11-25T07:40:38.618Z,19.05
2023-11-25T07:43:05.474Z,20.90
2023-11-25T07:45:32.236Z,18.30
2023-11-25T07:47:59.491Z,17.48
2023-11-25T07:50:27.174Z,15.65
2023-11-25T07:52:54.395Z,20.08
2023-11-25T07:55:21.373Z,16.48
2023-11-25T07:57:49.332Z,14.95
2023-11-25T08:00:17.862Z,15.95
2023-11-25T08:02:45.779Z,13.85
2023-11-25T08:05:23.059Z,14.80
2023-11-25T08:07:54.629Z,13.23
2023-11-25T08:10:23.750Z,14.77
2023-11-25T08:12:50.610Z,12.63
2023-11-25T08:15:18.930Z,13.82
2023-11-25T08:17:45.928Z,12.27
2023-11-25T08:20:13.087Z,12.60
2023-11-25T08:22:40.534Z,10.98
2023-11-25T08:25:11.725Z,12.02
2023-11-25T08:27:39.174Z,11.35
2023-11-25T08:30:09.684Z,11.73
2023-11-25T08:32:41.470Z,11.48
2023-11-25T08:35:10.512Z,10.25
2023-11-25T08:37:39.714Z,10.23
2023-11-25T08:40:16.552Z,11.02
2023-11-25T08:42:45.532Z,10.52
2023-11-25T08:45:12.921Z,10.35
2023-11-25T08:47:42.908Z,11.68
2023-11-25T08:50:12.068Z,12.10
2023-11-25T08:52:40.461Z,12.02
2023-11-25T08:55:11.140Z,10.60
2023-11-25T08:57:38.685Z,11.38
2023-11-25T09:00:25.408Z,10.20
2023-11-25T09:02:53.604Z,7.93
2023-11-25T09:05:26.822Z,7.35
2023-11-25T09:07:56.427Z,6.22
2023-11-25T09:10:24.431Z,6.57
2023-11-25T09:12:53.902Z,7.07
2023-11-25T09:15:22.735Z,4.57
2023-11-25T09:17:49.743Z,2.45
2023-11-25T09:20:17.917Z,5.82
2023-11-25T09:22:44.812Z,1.95
2023-11-25T09:25:13.157Z,1.55
2023-11-25T09:27:59.376Z,1.42
2023-11-25T09:30:27.291Z,0.45
2023-11-25T09:32:54.866Z,1.13
2023-11-25T09:35:24.180Z,3.38
2023-11-25T09:37:51.918Z,1.25
2023-11-25T09:40:20.810Z,1.48
2023-11-25T09:42:48.985Z,1.27
2023-11-25T09:45:16.626Z,2.92
2023-11-25T09:47:45.303Z,2.85
2023-11-25T09:50:14.551Z,1.75
2023-11-25T09:52:53.501Z,1.30
2023-11-25T09:55:23.920Z,1.83
2023-11-25T09:57:55.261Z,0.88
2023-11-25T10:00:22.945Z,0.80
2023-11-25T10:02:54.499Z,2.05
2023-11-25T10:05:22.074Z,0.80
2023-11-25T10:07:49.034Z,1.08
2023-11-25T10:10:22.625Z,1.80
2023-11-25T10:12:50.336Z,1.08
2023-11-25T10:15:17.591Z,1.40
2023-11-25T10:17:45.830Z,0.80
2023-11-25T10:20:20.726Z,2.25
2023-11-25T10:22:54.768Z,1.08
2023-11-25T10:25:22.816Z,1.17
2023-11-25T10:27:52.505Z,6.70
2023-11-25T10:30:21.854Z,1.67
2023-11-25T10:32:55.807Z,2.08
2023-11-25T10:35:25.928Z,0.63
2023-11-25T10:37:53.118Z,1.20
2023-11-25T10:40:20.922Z,1.77
2023-11-25T10:42:47.780Z,1.33
2023-11-25T10:45:19.126Z,1.48
2023-11-25T10:47:46.299Z,1.95
2023-11-25T10:50:16.681Z,1.02
2023-11-25T10:52:44.939Z,1.58
2023-11-25T10:55:12.275Z,1.85
2023-11-25T10:57:39.351Z,2.45
2023-11-25T11:00:12.439Z,1.73
2023-11-25T11:02:45.079Z,2.72
2023-11-25T11:05:15.332Z,1.85
2023-11-25T11:07:55.901Z,2.35
2023-11-25T11:10:32.507Z,0.50
2023-11-25T11:13:09.265Z,2.13
2023-11-25T11:15:37.363Z,3.78
2023-11-25T11:18:17.643Z,1.92
2023-11-25T11:20:51.131Z,1.15
2023-11-25T11:23:20.596Z,0.93
2023-11-25T11:26:00.995Z,3.70
2023-11-25T11:28:39.821Z,1.63
2023-11-25T11:31:44.105Z,0.80
2023-11-25T11:34:11.162Z,1.52
2023-11-25T11:36:37.872Z,2.17
2023-11-25T11:39:04.719Z,1.33
2023-11-25T11:41:31.509Z,1.13
2023-11-25T11:44:06.244Z,1.23
2023-11-25T11:46:43.767Z,3.25
2023-11-25T11:49:13.457Z,1.88
2023-11-25T11:52:01.611Z,0.75
2023-11-25T11:54:29.713Z,2.47
2023-11-25T11:57:08.697Z,1.85
2023-11-25T12:00:01.792Z,2.88
2023-11-25T12:02:32.582Z,0.82
2023-11-25T12:05:00.851Z,0.60
2023-11-25T12:07:28.556Z,1.13
2023-11-25T12:09:57.580Z,1.65
2023-11-25T12:12:25.310Z,0.80
2023-11-25T12:14:54.359Z,2.17
2023-11-25T12:17:22.803Z,1.77
2023-11-25T12:19:53.543Z,1.75
2023-11-25T12:22:20.580Z,1.52
2023-11-25T12:24:47.321Z,0.82
2023-11-25T12:27:15.830Z,0.57
2023-11-25T12:29:42.474Z,1.88
2023-11-25T12:32:09.373Z,0.68
2023-11-25T12:34:36.845Z,1.23
2023-11-25T12:37:03.917Z,1.35
2023-11-25T12:39:30.636Z,1.35
2023-11-25T12:41:57.402Z,2.45
2023-11-25T12:44:24.717Z,0.63
2023-11-25T12:47:03.126Z,2.72
2023-11-25T12:49:50.890Z,1.95
2023-11-25T12:52:25.865Z,2.90
2023-11-25T12:54:54.087Z,0.90
2023-11-25T12:57:26.929Z,1.13
2023-11-25T12:59:53.720Z,0.70
2023-11-25T13:02:21.308Z,1.10
2023-11-25T13:04:52.170Z,1.45
2023-11-25T13:07:35.900Z,0.63
2023-11-25T13:10:04.972Z,1.40
2023-11-25T13:12:32.924Z,1.50
2023-11-25T13:14:59.884Z,1.10
2023-11-25T13:17:26.934Z,1.25
2023-11-25T13:19:54.199Z,0.85
2023-11-25T13:22:21.052Z,1.17
2023-11-25T13:24:47.863Z,1.00
2023-11-25T13:27:14.739Z,0.85
2023-11-25T13:29:45.669Z,1.40
2023-11-25T13:34:42.428Z,1.65
2023-11-25T13:37:09.428Z,1.88
2023-11-25T13:39:37.034Z,1.52
2023-11-25T13:42:05.965Z,2.70
2023-11-25T13:44:33.037Z,3.10
2023-11-25T13:47:00.147Z,3.17
2023-11-25T13:49:30.356Z,2.20
2023-11-25T13:51:57.972Z,2.08
2023-11-25T13:54:27.544Z,2.83
2023-11-25T13:56:56.984Z,1.13
2023-11-25T13:59:24.191Z,1.80
2023-11-25T14:01:51.149Z,2.70
2023-11-25T14:04:17.950Z,1.83
2023-11-25T14:06:44.640Z,2.55
2023-11-25T14:09:18.745Z,1.77
2023-11-25T14:11:45.954Z,2.00
2023-11-25T14:14:13.597Z,3.55
2023-11-25T14:16:40.810Z,1.90
2023-11-25T14:19:08.199Z,2.55
2023-11-25T14:21:35.024Z,2.92
2023-11-25T14:24:01.695Z,1.70
2023-11-25T14:26:28.504Z,1.30
2023-11-25T14:28:55.549Z,2.05
2023-11-25T14:31:23.336Z,1.77
2023-11-25T14:33:50.228Z,3.13
2023-11-25T14:36:17.149Z,4.03
2023-11-25T14:38:43.903Z,1.77
2023-11-25T14:41:10.783Z,1.10
2023-11-25T14:43:37.556Z,3.78
2023-11-25T14:46:04.604Z,1.95
2023-11-25T14:48:31.445Z,2.58
2023-11-25T14:50:58.184Z,2.22
2023-11-25T14:53:25.020Z,4.07
2023-11-25T14:55:52.002Z,4.15
2023-11-25T14:58:18.774Z,2.85
2023-11-25T15:00:46.467Z,2.72
2023-11-25T15:03:13.524Z,2.22
2023-11-25T15:05:40.678Z,5.72
2023-11-25T15:08:08.374Z,2.63
2023-11-25T15:10:35.745Z,2.42
2023-11-25T15:13:02.549Z,4.40
2023-11-25T15:15:29.719Z,5.03
2023-11-25T15:17:56.489Z,4.25
2023-11-25T15:20:24.053Z,4.97
2023-11-25T15:22:52.241Z,3.80
2023-11-25T15:25:19.260Z,4.60
2023-11-25T15:27:46.193Z,4.82
2023-11-25T15:30:13.742Z,5.82
2023-11-25T15:32:43.586Z,3.33
2023-11-25T15:35:11.563Z,5.63
2023-11-25T15:37:38.473Z,6.53
2023-11-25T15:40:06.084Z,8.40
2023-11-25T15:42:33.361Z,11.20
2023-11-25T15:45:00.297Z,12.40
2023-11-25T15:47:27.105Z,9.85
2023-11-25T15:49:54.582Z,9.60
2023-11-25T15:52:21.376Z,11.15
2023-11-25T15:54:48.238Z,14.82
2023-11-25T15:57:15.026Z,15.05
2023-11-25T15:59:45.129Z,13.95
2023-11-25T16:02:12.336Z,12.17
2023-11-25T16:04:39.707Z,11.65
2023-11-25T16:07:11.809Z,11.30
2023-11-25T16:09:40.092Z,7.47
2023-11-25T16:12:07.450Z,11.73
2023-11-25T16:14:34.771Z,7.00
2023-11-25T16:17:01.626Z,6.60
2023-11-25T16:19:28.376Z,8.63
2023-11-25T16:21:57.491Z,6.07
2023-11-25T16:24:27.763Z,7.30
2023-11-25T16:26:54.559Z,8.07
2023-11-25T16:29:21.354Z,6.55
2023-11-25T16:31:48.181Z,7.20
2023-11-25T16:34:14.987Z,6.85
2023-11-25T16:36:42.203Z,5.85
2023-11-25T16:39:11.242Z,6.43
2023-11-25T16:41:38.710Z,5.88
2023-11-25T16:44:06.138Z,12.52
2023-11-25T16:46:33.732Z,9.60
2023-11-25T16:49:07.412Z,7.90
2023-11-25T16:51:35.955Z,6.43
2023-11-25T16:54:02.758Z,6.32
2023-11-25T16:56:29.653Z,5.97
2023-11-25T16:58:56.366Z,6.80
2023-11-25T17:01:23.214Z,5.13
2023-11-25T17:03:50.347Z,6.90
2023-11-25T17:06:17.323Z,5.90
2023-11-25T17:08:46.171Z,6.35
2023-11-25T17:11:13.000Z,6.55
2023-11-25T17:13:39.814Z,5.53
2023-11-25T17:16:06.626Z,6.50
2023-11-25T17:18:33.516Z,6.15
2023-11-25T17:21:02.520Z,5.28
2023-11-25T17:23:29.246Z,7.00
2023-11-25T17:25:56.024Z,5.60
2023-11-25T17:28:23.890Z,6.45
2023-11-25T17:30:50.723Z,5.57
2023-11-25T17:33:17.489Z,8.27
2023-11-25T17:35:44.401Z,7.93
2023-11-25T17:38:11.347Z,8.55
2023-11-25T17:40:38.159Z,6.97
2023-11-25T17:43:05.639Z,7.50
2023-11-25T17:45:32.489Z,11.05
2023-11-25T17:47:59.270Z,7.35
2023-11-25T17:50:28.770Z,5.78
2023-11-25T17:53:06.914Z,7.03
2023-11-25T17:55:39.385Z,8.45
2023-11-25T17:58:06.572Z,7.07
2023-11-25T18:00:33.480Z,10.10
2023-11-25T18:03:05.980Z,6.80
2023-11-25T18:05:32.818Z,7.40
2023-11-25T18:07:59.518Z,6.43
2023-11-25T18:10:28.963Z,7.28
2023-11-25T18:12:56.564Z,5.78
2023-11-25T18:15:23.704Z,5.43
2023-11-25T18:17:50.802Z,4.72
2023-11-25T18:20:17.649Z,6.30
2023-11-25T18:22:44.546Z,5.55
2023-11-25T18:25:11.644Z,6.20
2023-11-25T18:27:39.415Z,6.38
2023-11-25T18:30:06.934Z,4.88
2023-11-25T18:32:33.763Z,7.90
2023-11-25T18:35:02.054Z,5.20
2023-11-25T18:37:29.369Z,4.28
2023-11-25T18:39:56.188Z,4.72
2023-11-25T18:42:22.926Z,5.95
2023-11-25T18:44:49.708Z,6.53
2023-11-25T18:47:16.473Z,5.80
2023-11-25T18:49:43.250Z,7.80
2023-11-25T18:52:10.099Z,6.15
2023-11-25T18:54:37.004Z,5.13
2023-11-25T18:57:03.932Z,5.43
2023-11-25T18:59:30.673Z,5.35
2023-11-25T19:01:57.458Z,3.42
2023-11-25T19:04:24.326Z,8.02
2023-11-25T19:06:51.893Z,4.50
2023-11-25T19:09:18.829Z,6.47
2023-11-25T19:11:46.940Z,5.95
2023-11-25T19:14:16.538Z,6.80
2023-11-25T19:16:43.440Z,5.22
2023-11-25T19:19:11.005Z,4.03
2023-11-25T19:21:37.891Z,5.15
2023-11-25T19:24:05.150Z,5.05
2023-11-25T19:26:31.955Z,5.93
2023-11-25T19:28:58.744Z,6.63
2023-11-25T19:31:25.573Z,6.47
2023-11-25T19:33:54.066Z,6.93
2023-11-25T19:36:20.974Z,3.42
2023-11-25T19:38:47.686Z,5.35
2023-11-25T19:41:17.187Z,5.25
2023-11-25T19:43:46.228Z,3.45
2023-11-25T19:46:16.050Z,3.55
2023-11-25T19:48:46.430Z,5.43
2023-11-25T19:51:13.167Z,6.05
2023-11-25T19:53:50.225Z,5.65
2023-11-25T19:56:22.023Z,5.95
2023-11-25T19:58:48.909Z,7.30
2023-11-25T20:01:15.749Z,8.63
2023-11-25T20:03:44.779Z,10.05
2023-11-25T20:06:12.167Z,8.02
2023-11-25T20:08:38.893Z,9.35
2023-11-25T20:11:05.955Z,9.55
2023-11-25T20:13:32.742Z,7.97
2023-11-25T20:15:59.715Z,7.07
2023-11-25T20:18:26.647Z,6.18
2023-11-25T20:20:53.918Z,5.90
2023-11-25T20:23:21.173Z,6.22
2023-11-25T20:25:48.162Z,4.00
2023-11-25T20:28:15.177Z,4.13
2023-11-25T20:30:43.033Z,5.32
2023-11-25T20:33:10.981Z,4.10
2023-11-25T20:35:37.790Z,3.65
2023-11-25T20:38:05.969Z,4.13
2023-11-25T20:40:32.862Z,4.18
2023-11-25T20:42:59.839Z,5.00
2023-11-25T20:45:26.584Z,4.25
2023-11-25T20:47:53.818Z,3.78
2023-11-25T20:50:20.961Z,3.97
2023-11-25T20:52:47.992Z,6.07
2023-11-25T20:55:15.091Z,5.38
2023-11-25T20:57:41.902Z,4.45
2023-11-25T21:00:13.415Z,5.15
2023-11-25T21:02:40.827Z,4.15
2023-11-25T21:05:08.035Z,5.03
2023-11-25T21:07:34.822Z,3.53
2023-11-25T21:10:01.668Z,5.15
2023-11-25T21:12:28.394Z,5.63
2023-11-25T21:14:55.401Z,6.20
2023-11-25T21:17:22.847Z,3.85
2023-11-25T21:19:49.614Z,3.58
2023-11-25T21:22:19.599Z,5.03
2023-11-25T21:24:46.336Z,4.23
2023-11-25T21:27:13.658Z,3.72
2023-11-25T21:29:40.415Z,6.97
2023-11-25T21:32:09.520Z,4.32
2023-11-25T21:34:37.064Z,4.80
2023-11-25T21:37:05.548Z,4.55
2023-11-25T21:39:32.658Z,4.88
2023-11-25T21:41:59.381Z,4.63
2023-11-25T21:44:26.206Z,3.58
2023-11-25T21:46:53.249Z,5.00
2023-11-25T21:49:20.197Z,4.78
2023-11-25T21:51:46.849Z,4.55
2023-11-25T21:54:14.149Z,4.75
2023-11-25T21:56:40.936Z,5.32
2023-11-25T21:59:07.887Z,4.97
2023-11-25T22:01:34.683Z,5.45
2023-11-25T22:04:02.397Z,5.40
2023-11-25T22:06:29.326Z,4.28
2023-11-25T22:08:57.685Z,4.35
2023-11-25T22:11:24.803Z,3.63
2023-11-25T22:13:52.102Z,3.53
2023-11-25T22:16:19.348Z,6.38
2023-11-25T22:18:46.446Z,4.53
2023-11-25T22:21:13.437Z,4.82
2023-11-25T22:23:42.105Z,5.47
2023-11-25T22:26:19.556Z,5.43
2023-11-25T22:28:46.701Z,9.48
2023-11-25T22:31:16.938Z,6.57
2023-11-25T22:33:44.719Z,5.40
2023-11-25T22:36:24.873Z,4.60
2023-11-25T22:38:55.400Z,5.00
2023-11-25T22:41:22.885Z,4.45
2023-11-25T22:43:52.070Z,4.30
2023-11-25T22:46:22.983Z,3.97
2023-11-25T22:48:51.522Z,4.13
2023-11-25T22:51:20.540Z,4.03
2023-11-25T22:53:47.386Z,4.65
2023-11-25T22:56:14.798Z,6.30
2023-11-25T22:58:41.824Z,7.28
2023-11-25T23:01:13.486Z,5.82
2023-11-25T23:03:40.589Z,5.75
2023-11-25T23:06:10.184Z,5.60
2023-11-25T23:08:38.201Z,6.65
2023-11-25T23:11:05.254Z,11.60
2023-11-25T23:13:32.062Z,5.13
2023-11-25T23:15:59.706Z,3.40
2023-11-25T23:18:26.550Z,3.22
2023-11-25T23:20:53.412Z,3.28
2023-11-25T23:23:20.563Z,3.85
2023-11-25T23:25:49.213Z,2.90
2023-11-25T23:28:17.843Z,2.97
2023-11-25T23:30:44.629Z,5.15
2023-11-25T23:33:11.502Z,4.78
2023-11-25T23:35:38.378Z,5.07
2023-11-25T23:38:05.549Z,3.55
2023-11-25T23:40:32.300Z,3.60
2023-11-25T23:42:59.072Z,3.63
2023-11-25T23:45:27.202Z,4.05
2023-11-25T23:47:54.061Z,3.42
2023-11-25T23:50:20.867Z,2.50
2023-11-25T23:52:47.726Z,3.28
2023-11-25T23:55:14.486Z,2.88
2023-11-25T23:57:41.195Z,3.05
